sensor_id;sensor_type;location;lat;lon;timestamp;P1;durP1;ratioP1;P2;durP2;ratioP2
26201;SDS011;13944;28.562;77.188;2023-04-24T00:01:04;37.53;;;16.15;;
26201;SDS011;13944;28.562;77.188;2023-04-24T00:03:32;37.67;;;15.73;;
26201;SDS011;13944;28.562;77.188;2023-04-24T00:05:59;49.15;;;17.17;;
26201;SDS011;13944;28.562;77.188;2023-04-24T00:08:26;46.10;;;16.60;;
26201;SDS011;13944;28.562;77.188;2023-04-24T00:10:52;53.90;;;17.73;;
26201;SDS011;13944;28.562;77.188;2023-04-24T00:13:19;36.40;;;15.73;;
26201;SDS011;13944;28.562;77.188;2023-04-24T00:15:45;37.15;;;16.35;;
26201;SDS011;13944;28.562;77.188;2023-04-24T00:18:12;46.67;;;15.32;;
26201;SDS011;13944;28.562;77.188;2023-04-24T00:20:39;50.10;;;16.48;;
26201;SDS011;13944;28.562;77.188;2023-04-24T00:23:05;46.28;;;16.65;;
26201;SDS011;13944;28.562;77.188;2023-04-24T00:25:32;61.17;;;16.48;;
26201;SDS011;13944;28.562;77.188;2023-04-24T00:27:58;48.65;;;16.90;;
26201;SDS011;13944;28.562;77.188;2023-04-24T00:30:25;53.70;;;17.70;;
26201;SDS011;13944;28.562;77.188;2023-04-24T00:32:51;51.72;;;17.60;;
26201;SDS011;13944;28.562;77.188;2023-04-24T00:35:18;40.72;;;15.93;;
26201;SDS011;13944;28.562;77.188;2023-04-24T00:37:45;48.90;;;16.40;;
26201;SDS011;13944;28.562;77.188;2023-04-24T00:40:12;273.60;;;34.70;;
26201;SDS011;13944;28.562;77.188;2023-04-24T00:42:39;91.90;;;22.08;;
26201;SDS011;13944;28.562;77.188;2023-04-24T00:45:06;64.97;;;20.20;;
26201;SDS011;13944;28.562;77.188;2023-04-24T00:47:33;66.43;;;19.60;;
26201;SDS011;13944;28.562;77.188;2023-04-24T00:50:03;115.70;;;25.17;;
26201;SDS011;13944;28.562;77.188;2023-04-24T00:52:30;78.70;;;21.55;;
26201;SDS011;13944;28.562;77.188;2023-04-24T00:54:58;58.72;;;20.38;;
26201;SDS011;13944;28.562;77.188;2023-04-24T00:57:24;64.55;;;20.60;;
26201;SDS011;13944;28.562;77.188;2023-04-24T00:59:51;63.50;;;22.30;;
26201;SDS011;13944;28.562;77.188;2023-04-24T01:02:18;67.78;;;22.48;;
26201;SDS011;13944;28.562;77.188;2023-04-24T01:04:45;80.53;;;22.58;;
26201;SDS011;13944;28.562;77.188;2023-04-24T01:07:12;116.47;;;25.50;;
26201;SDS011;13944;28.562;77.188;2023-04-24T01:09:39;70.28;;;23.70;;
26201;SDS011;13944;28.562;77.188;2023-04-24T01:12:07;64.55;;;23.25;;
26201;SDS011;13944;28.562;77.188;2023-04-24T01:14:34;52.05;;;21.80;;
26201;SDS011;13944;28.562;77.188;2023-04-24T01:17:00;86.88;;;23.05;;
26201;SDS011;13944;28.562;77.188;2023-04-24T01:19:27;65.10;;;22.50;;
26201;SDS011;13944;28.562;77.188;2023-04-24T01:21:54;56.72;;;23.33;;
26201;SDS011;13944;28.562;77.188;2023-04-24T01:24:23;60.33;;;25.88;;
26201;SDS011;13944;28.562;77.188;2023-04-24T01:26:49;64.80;;;27.73;;
26201;SDS011;13944;28.562;77.188;2023-04-24T01:29:16;60.83;;;25.08;;
26201;SDS011;13944;28.562;77.188;2023-04-24T01:31:42;64.78;;;27.25;;
26201;SDS011;13944;28.562;77.188;2023-04-24T01:34:09;74.25;;;26.58;;
26201;SDS011;13944;28.562;77.188;2023-04-24T01:36:36;62.72;;;27.00;;
26201;SDS011;13944;28.562;77.188;2023-04-24T01:39:03;71.43;;;27.58;;
26201;SDS011;13944;28.562;77.188;2023-04-24T01:41:30;63.70;;;27.02;;
26201;SDS011;13944;28.562;77.188;2023-04-24T01:43:57;67.53;;;28.25;;
26201;SDS011;13944;28.562;77.188;2023-04-24T01:46:23;61.90;;;27.77;;
26201;SDS011;13944;28.562;77.188;2023-04-24T01:48:50;66.32;;;28.40;;
26201;SDS011;13944;28.562;77.188;2023-04-24T01:51:17;84.80;;;29.27;;
26201;SDS011;13944;28.562;77.188;2023-04-24T01:53:44;88.28;;;29.08;;
26201;SDS011;13944;28.562;77.188;2023-04-24T01:56:10;82.03;;;29.33;;
26201;SDS011;13944;28.562;77.188;2023-04-24T01:58:37;80.93;;;28.20;;
26201;SDS011;13944;28.562;77.188;2023-04-24T02:01:05;91.35;;;29.35;;
26201;SDS011;13944;28.562;77.188;2023-04-24T02:03:32;74.90;;;28.60;;
26201;SDS011;13944;28.562;77.188;2023-04-24T02:05:58;72.82;;;27.35;;
26201;SDS011;13944;28.562;77.188;2023-04-24T02:08:25;78.93;;;27.33;;
26201;SDS011;13944;28.562;77.188;2023-04-24T02:10:51;91.85;;;27.55;;
26201;SDS011;13944;28.562;77.188;2023-04-24T02:13:18;78.25;;;28.00;;
26201;SDS011;13944;28.562;77.188;2023-04-24T02:15:44;83.85;;;27.23;;
26201;SDS011;13944;28.562;77.188;2023-04-24T02:18:11;93.82;;;27.23;;
26201;SDS011;13944;28.562;77.188;2023-04-24T02:20:38;76.45;;;27.77;;
26201;SDS011;13944;28.562;77.188;2023-04-24T02:23:04;75.18;;;27.77;;
26201;SDS011;13944;28.562;77.188;2023-04-24T02:25:30;71.80;;;28.30;;
26201;SDS011;13944;28.562;77.188;2023-04-24T02:27:57;78.18;;;32.45;;
26201;SDS011;13944;28.562;77.188;2023-04-24T02:30:24;83.25;;;32.22;;
26201;SDS011;13944;28.562;77.188;2023-04-24T02:32:50;60.50;;;27.23;;
26201;SDS011;13944;28.562;77.188;2023-04-24T02:35:17;62.78;;;27.23;;
26201;SDS011;13944;28.562;77.188;2023-04-24T02:37:43;56.08;;;24.65;;
26201;SDS011;13944;28.562;77.188;2023-04-24T02:40:10;57.63;;;24.17;;
26201;SDS011;13944;28.562;77.188;2023-04-24T02:42:36;57.88;;;22.75;;
26201;SDS011;13944;28.562;77.188;2023-04-24T02:45:03;48.58;;;21.80;;
26201;SDS011;13944;28.562;77.188;2023-04-24T02:47:30;47.83;;;21.15;;
26201;SDS011;13944;28.562;77.188;2023-04-24T02:49:56;60.08;;;25.05;;
26201;SDS011;13944;28.562;77.188;2023-04-24T02:52:23;49.65;;;23.25;;
26201;SDS011;13944;28.562;77.188;2023-04-24T02:54:50;52.45;;;23.40;;
26201;SDS011;13944;28.562;77.188;2023-04-24T02:57:16;54.22;;;23.98;;
26201;SDS011;13944;28.562;77.188;2023-04-24T02:59:42;56.78;;;23.35;;
26201;SDS011;13944;28.562;77.188;2023-04-24T03:02:09;63.38;;;26.73;;
26201;SDS011;13944;28.562;77.188;2023-04-24T03:04:36;52.38;;;22.63;;
26201;SDS011;13944;28.562;77.188;2023-04-24T03:07:02;60.88;;;25.95;;
26201;SDS011;13944;28.562;77.188;2023-04-24T03:09:29;53.35;;;26.75;;
26201;SDS011;13944;28.562;77.188;2023-04-24T03:11:56;61.67;;;28.65;;
26201;SDS011;13944;28.562;77.188;2023-04-24T03:14:23;70.93;;;28.27;;
26201;SDS011;13944;28.562;77.188;2023-04-24T03:16:50;69.68;;;30.77;;
26201;SDS011;13944;28.562;77.188;2023-04-24T03:19:16;72.50;;;31.00;;
26201;SDS011;13944;28.562;77.188;2023-04-24T03:21:43;69.53;;;31.02;;
26201;SDS011;13944;28.562;77.188;2023-04-24T03:24:10;76.40;;;32.83;;
26201;SDS011;13944;28.562;77.188;2023-04-24T03:26:36;77.57;;;34.50;;
26201;SDS011;13944;28.562;77.188;2023-04-24T03:29:03;77.53;;;36.72;;
26201;SDS011;13944;28.562;77.188;2023-04-24T03:31:29;78.40;;;39.00;;
26201;SDS011;13944;28.562;77.188;2023-04-24T03:33:56;86.67;;;40.13;;
26201;SDS011;13944;28.562;77.188;2023-04-24T03:36:22;67.70;;;34.85;;
26201;SDS011;13944;28.562;77.188;2023-04-24T03:38:49;84.95;;;37.00;;
26201;SDS011;13944;28.562;77.188;2023-04-24T03:41:16;81.88;;;38.33;;
26201;SDS011;13944;28.562;77.188;2023-04-24T03:43:42;91.28;;;41.60;;
26201;SDS011;13944;28.562;77.188;2023-04-24T03:46:12;82.13;;;42.22;;
26201;SDS011;13944;28.562;77.188;2023-04-24T03:48:39;88.00;;;40.28;;
26201;SDS011;13944;28.562;77.188;2023-04-24T03:51:05;82.50;;;39.38;;
26201;SDS011;13944;28.562;77.188;2023-04-24T03:53:32;86.68;;;40.05;;
26201;SDS011;13944;28.562;77.188;2023-04-24T03:55:58;84.40;;;40.15;;
26201;SDS011;13944;28.562;77.188;2023-04-24T03:58:25;95.55;;;41.42;;
26201;SDS011;13944;28.562;77.188;2023-04-24T04:00:52;80.18;;;35.42;;
26201;SDS011;13944;28.562;77.188;2023-04-24T04:03:18;80.10;;;33.42;;
26201;SDS011;13944;28.562;77.188;2023-04-24T04:05:45;88.30;;;34.30;;
26201;SDS011;13944;28.562;77.188;2023-04-24T04:08:11;73.32;;;32.75;;
26201;SDS011;13944;28.562;77.188;2023-04-24T04:10:38;68.05;;;32.28;;
26201;SDS011;13944;28.562;77.188;2023-04-24T04:13:04;68.55;;;30.52;;
26201;SDS011;13944;28.562;77.188;2023-04-24T04:15:31;62.78;;;29.27;;
26201;SDS011;13944;28.562;77.188;2023-04-24T04:17:58;59.60;;;29.77;;
26201;SDS011;13944;28.562;77.188;2023-04-24T04:20:24;51.28;;;25.13;;
26201;SDS011;13944;28.562;77.188;2023-04-24T04:22:51;56.33;;;29.00;;
26201;SDS011;13944;28.562;77.188;2023-04-24T04:25:17;49.33;;;26.02;;
26201;SDS011;13944;28.562;77.188;2023-04-24T04:27:45;61.65;;;28.42;;
26201;SDS011;13944;28.562;77.188;2023-04-24T04:30:13;54.80;;;25.73;;
26201;SDS011;13944;28.562;77.188;2023-04-24T04:32:39;43.05;;;23.33;;
26201;SDS011;13944;28.562;77.188;2023-04-24T04:35:06;56.17;;;27.23;;
26201;SDS011;13944;28.562;77.188;2023-04-24T04:37:33;48.72;;;24.55;;
26201;SDS011;13944;28.562;77.188;2023-04-24T04:40:00;53.75;;;29.20;;
26201;SDS011;13944;28.562;77.188;2023-04-24T04:42:31;46.30;;;24.63;;
26201;SDS011;13944;28.562;77.188;2023-04-24T04:44:58;48.83;;;24.25;;
26201;SDS011;13944;28.562;77.188;2023-04-24T04:47:24;52.85;;;27.15;;
26201;SDS011;13944;28.562;77.188;2023-04-24T04:49:51;53.40;;;25.20;;
26201;SDS011;13944;28.562;77.188;2023-04-24T04:52:18;49.85;;;25.00;;
26201;SDS011;13944;28.562;77.188;2023-04-24T04:54:45;57.00;;;27.00;;
26201;SDS011;13944;28.562;77.188;2023-04-24T04:57:23;71.00;;;27.73;;
26201;SDS011;13944;28.562;77.188;2023-04-24T04:59:49;55.78;;;27.52;;
26201;SDS011;13944;28.562;77.188;2023-04-24T05:02:16;49.85;;;25.80;;
26201;SDS011;13944;28.562;77.188;2023-04-24T05:04:43;58.53;;;27.42;;
26201;SDS011;13944;28.562;77.188;2023-04-24T05:07:10;52.17;;;23.38;;
26201;SDS011;13944;28.562;77.188;2023-04-24T05:09:37;42.78;;;22.85;;
26201;SDS011;13944;28.562;77.188;2023-04-24T05:12:03;63.00;;;23.10;;
26201;SDS011;13944;28.562;77.188;2023-04-24T05:14:30;38.80;;;19.33;;
26201;SDS011;13944;28.562;77.188;2023-04-24T05:16:59;44.83;;;19.77;;
26201;SDS011;13944;28.562;77.188;2023-04-24T05:19:26;56.53;;;23.48;;
26201;SDS011;13944;28.562;77.188;2023-04-24T05:21:53;36.95;;;18.95;;
26201;SDS011;13944;28.562;77.188;2023-04-24T05:24:19;50.55;;;22.92;;
26201;SDS011;13944;28.562;77.188;2023-04-24T05:26:46;47.17;;;23.08;;
26201;SDS011;13944;28.562;77.188;2023-04-24T05:29:16;49.65;;;25.48;;
26201;SDS011;13944;28.562;77.188;2023-04-24T05:31:44;57.10;;;24.23;;
26201;SDS011;13944;28.562;77.188;2023-04-24T05:34:11;48.85;;;22.98;;
26201;SDS011;13944;28.562;77.188;2023-04-24T05:36:38;46.28;;;23.10;;
26201;SDS011;13944;28.562;77.188;2023-04-24T05:39:07;43.60;;;21.33;;
26201;SDS011;13944;28.562;77.188;2023-04-24T05:41:34;53.50;;;23.90;;
26201;SDS011;13944;28.562;77.188;2023-04-24T05:44:00;50.38;;;25.05;;
26201;SDS011;13944;28.562;77.188;2023-04-24T05:46:27;52.72;;;24.20;;
26201;SDS011;13944;28.562;77.188;2023-04-24T05:48:53;46.45;;;23.90;;
26201;SDS011;13944;28.562;77.188;2023-04-24T05:51:23;41.80;;;20.73;;
26201;SDS011;13944;28.562;77.188;2023-04-24T05:53:51;34.38;;;19.45;;
26201;SDS011;13944;28.562;77.188;2023-04-24T05:56:17;43.10;;;20.83;;
26201;SDS011;13944;28.562;77.188;2023-04-24T05:58:45;46.70;;;22.88;;
26201;SDS011;13944;28.562;77.188;2023-04-24T06:01:15;43.80;;;19.38;;
26201;SDS011;13944;28.562;77.188;2023-04-24T06:03:41;43.63;;;20.85;;
26201;SDS011;13944;28.562;77.188;2023-04-24T06:06:08;38.15;;;18.85;;
26201;SDS011;13944;28.562;77.188;2023-04-24T06:08:35;44.83;;;22.63;;
26201;SDS011;13944;28.562;77.188;2023-04-24T06:11:02;51.42;;;25.50;;
26201;SDS011;13944;28.562;77.188;2023-04-24T06:13:30;47.03;;;24.02;;
26201;SDS011;13944;28.562;77.188;2023-04-24T06:15:58;47.75;;;24.67;;
26201;SDS011;13944;28.562;77.188;2023-04-24T06:18:24;46.95;;;24.08;;
26201;SDS011;13944;28.562;77.188;2023-04-24T06:20:51;45.03;;;24.30;;
26201;SDS011;13944;28.562;77.188;2023-04-24T06:23:18;48.40;;;25.52;;
26201;SDS011;13944;28.562;77.188;2023-04-24T06:25:44;41.85;;;25.50;;
26201;SDS011;13944;28.562;77.188;2023-04-24T06:28:11;47.97;;;25.38;;
26201;SDS011;13944;28.562;77.188;2023-04-24T06:30:37;46.50;;;26.70;;
26201;SDS011;13944;28.562;77.188;2023-04-24T06:33:04;48.85;;;26.30;;
26201;SDS011;13944;28.562;77.188;2023-04-24T06:35:30;43.30;;;25.45;;
26201;SDS011;13944;28.562;77.188;2023-04-24T06:37:57;42.90;;;25.52;;
26201;SDS011;13944;28.562;77.188;2023-04-24T06:40:23;44.28;;;23.27;;
26201;SDS011;13944;28.562;77.188;2023-04-24T06:42:50;50.63;;;25.83;;
26201;SDS011;13944;28.562;77.188;2023-04-24T06:45:17;52.08;;;25.10;;
26201;SDS011;13944;28.562;77.188;2023-04-24T06:47:46;44.85;;;23.75;;
26201;SDS011;13944;28.562;77.188;2023-04-24T06:50:13;45.10;;;23.70;;
26201;SDS011;13944;28.562;77.188;2023-04-24T06:52:40;43.08;;;25.73;;
26201;SDS011;13944;28.562;77.188;2023-04-24T06:55:06;45.25;;;26.38;;
26201;SDS011;13944;28.562;77.188;2023-04-24T06:57:33;50.50;;;29.15;;
26201;SDS011;13944;28.562;77.188;2023-04-24T07:00:00;43.95;;;24.10;;
26201;SDS011;13944;28.562;77.188;2023-04-24T07:02:26;40.42;;;21.92;;
26201;SDS011;13944;28.562;77.188;2023-04-24T07:04:53;41.13;;;19.52;;
26201;SDS011;13944;28.562;77.188;2023-04-24T07:07:19;37.03;;;16.65;;
26201;SDS011;13944;28.562;77.188;2023-04-24T07:09:46;38.13;;;19.30;;
26201;SDS011;13944;28.562;77.188;2023-04-24T07:12:13;28.88;;;16.77;;
26201;SDS011;13944;28.562;77.188;2023-04-24T07:14:42;29.85;;;16.98;;
26201;SDS011;13944;28.562;77.188;2023-04-24T07:17:11;48.47;;;26.55;;
26201;SDS011;13944;28.562;77.188;2023-04-24T07:19:38;61.65;;;33.28;;
26201;SDS011;13944;28.562;77.188;2023-04-24T07:22:04;59.63;;;34.08;;
26201;SDS011;13944;28.562;77.188;2023-04-24T07:24:31;70.50;;;36.67;;
26201;SDS011;13944;28.562;77.188;2023-04-24T07:26:58;69.70;;;37.00;;
26201;SDS011;13944;28.562;77.188;2023-04-24T07:29:26;79.63;;;37.72;;
26201;SDS011;13944;28.562;77.188;2023-04-24T07:31:53;71.53;;;40.15;;
26201;SDS011;13944;28.562;77.188;2023-04-24T07:34:19;68.13;;;38.53;;
26201;SDS011;13944;28.562;77.188;2023-04-24T07:36:46;82.57;;;39.38;;
26201;SDS011;13944;28.562;77.188;2023-04-24T07:39:13;77.78;;;36.90;;
26201;SDS011;13944;28.562;77.188;2023-04-24T07:41:39;60.97;;;35.38;;
26201;SDS011;13944;28.562;77.188;2023-04-24T07:44:06;63.38;;;33.50;;
26201;SDS011;13944;28.562;77.188;2023-04-24T07:46:32;65.03;;;34.65;;
26201;SDS011;13944;28.562;77.188;2023-04-24T07:48:59;65.68;;;34.28;;
26201;SDS011;13944;28.562;77.188;2023-04-24T07:51:29;60.63;;;34.85;;
26201;SDS011;13944;28.562;77.188;2023-04-24T07:54:03;64.97;;;35.70;;
26201;SDS011;13944;28.562;77.188;2023-04-24T07:56:33;66.45;;;34.35;;
26201;SDS011;13944;28.562;77.188;2023-04-24T07:59:01;59.45;;;33.10;;
26201;SDS011;13944;28.562;77.188;2023-04-24T08:01:27;61.70;;;32.35;;
26201;SDS011;13944;28.562;77.188;2023-04-24T08:03:54;57.85;;;28.90;;
26201;SDS011;13944;28.562;77.188;2023-04-24T08:06:20;59.97;;;30.10;;
26201;SDS011;13944;28.562;77.188;2023-04-24T08:08:47;53.60;;;29.00;;
26201;SDS011;13944;28.562;77.188;2023-04-24T08:11:13;62.10;;;30.85;;
26201;SDS011;13944;28.562;77.188;2023-04-24T08:13:40;54.17;;;28.05;;
26201;SDS011;13944;28.562;77.188;2023-04-24T08:16:06;51.95;;;25.10;;
26201;SDS011;13944;28.562;77.188;2023-04-24T08:18:33;53.05;;;27.17;;
26201;SDS011;13944;28.562;77.188;2023-04-24T08:21:01;49.38;;;25.95;;
26201;SDS011;13944;28.562;77.188;2023-04-24T08:23:27;52.22;;;27.38;;
26201;SDS011;13944;28.562;77.188;2023-04-24T08:25:54;51.33;;;25.95;;
26201;SDS011;13944;28.562;77.188;2023-04-24T08:28:22;39.30;;;22.80;;
26201;SDS011;13944;28.562;77.188;2023-04-24T08:30:49;47.55;;;23.15;;
26201;SDS011;13944;28.562;77.188;2023-04-24T08:33:23;43.80;;;22.40;;
26201;SDS011;13944;28.562;77.188;2023-04-24T08:35:49;42.00;;;21.48;;
26201;SDS011;13944;28.562;77.188;2023-04-24T08:38:19;47.58;;;21.52;;
26201;SDS011;13944;28.562;77.188;2023-04-24T08:40:47;40.05;;;20.67;;
26201;SDS011;13944;28.562;77.188;2023-04-24T08:43:14;35.42;;;19.40;;
26201;SDS011;13944;28.562;77.188;2023-04-24T08:45:41;41.05;;;19.20;;
26201;SDS011;13944;28.562;77.188;2023-04-24T08:48:08;40.33;;;17.35;;
26201;SDS011;13944;28.562;77.188;2023-04-24T08:50:35;41.60;;;18.83;;
26201;SDS011;13944;28.562;77.188;2023-04-24T08:53:03;32.13;;;15.05;;
26201;SDS011;13944;28.562;77.188;2023-04-24T08:55:30;38.90;;;18.80;;
26201;SDS011;13944;28.562;77.188;2023-04-24T08:57:57;39.50;;;17.95;;
26201;SDS011;13944;28.562;77.188;2023-04-24T09:00:23;39.67;;;18.52;;
26201;SDS011;13944;28.562;77.188;2023-04-24T09:02:52;29.92;;;16.55;;
26201;SDS011;13944;28.562;77.188;2023-04-24T09:05:23;34.45;;;16.13;;
26201;SDS011;13944;28.562;77.188;2023-04-24T09:07:50;36.22;;;13.05;;
26201;SDS011;13944;28.562;77.188;2023-04-24T09:10:19;33.17;;;13.32;;
26201;SDS011;13944;28.562;77.188;2023-04-24T09:12:46;33.60;;;13.13;;
26201;SDS011;13944;28.562;77.188;2023-04-24T09:15:13;27.15;;;13.75;;
26201;SDS011;13944;28.562;77.188;2023-04-24T09:17:40;24.42;;;12.10;;
26201;SDS011;13944;28.562;77.188;2023-04-24T09:20:07;29.73;;;13.52;;
26201;SDS011;13944;28.562;77.188;2023-04-24T09:22:33;28.15;;;12.18;;
26201;SDS011;13944;28.562;77.188;2023-04-24T09:25:02;24.00;;;10.93;;
26201;SDS011;13944;28.562;77.188;2023-04-24T09:27:29;28.73;;;13.10;;
26201;SDS011;13944;28.562;77.188;2023-04-24T09:29:55;29.70;;;13.90;;
26201;SDS011;13944;28.562;77.188;2023-04-24T09:32:23;30.23;;;13.00;;
26201;SDS011;13944;28.562;77.188;2023-04-24T09:35:13;29.30;;;14.35;;
26201;SDS011;13944;28.562;77.188;2023-04-24T09:37:44;29.63;;;14.23;;
26201;SDS011;13944;28.562;77.188;2023-04-24T09:40:20;26.98;;;13.68;;
26201;SDS011;13944;28.562;77.188;2023-04-24T09:42:54;26.17;;;13.07;;
26201;SDS011;13944;28.562;77.188;2023-04-24T09:45:22;31.98;;;14.30;;
26201;SDS011;13944;28.562;77.188;2023-04-24T09:47:52;33.58;;;17.83;;
26201;SDS011;13944;28.562;77.188;2023-04-24T09:50:21;48.00;;;19.80;;
26201;SDS011;13944;28.562;77.188;2023-04-24T09:55:47;33.17;;;17.95;;
26201;SDS011;13944;28.562;77.188;2023-04-24T09:58:18;36.17;;;17.35;;
26201;SDS011;13944;28.562;77.188;2023-04-24T10:00:52;36.15;;;16.35;;
26201;SDS011;13944;28.562;77.188;2023-04-24T10:03:36;27.05;;;15.77;;
26201;SDS011;13944;28.562;77.188;2023-04-24T10:06:03;33.13;;;15.82;;
26201;SDS011;13944;28.562;77.188;2023-04-24T10:08:36;32.08;;;14.85;;
26201;SDS011;13944;28.562;77.188;2023-04-24T10:11:05;34.88;;;16.15;;
26201;SDS011;13944;28.562;77.188;2023-04-24T10:13:32;31.15;;;14.57;;
26201;SDS011;13944;28.562;77.188;2023-04-24T10:15:59;27.13;;;13.55;;
26201;SDS011;13944;28.562;77.188;2023-04-24T10:18:26;28.13;;;12.98;;
26201;SDS011;13944;28.562;77.188;2023-04-24T10:20:56;26.80;;;12.70;;
26201;SDS011;13944;28.562;77.188;2023-04-24T10:23:22;25.48;;;12.02;;
26201;SDS011;13944;28.562;77.188;2023-04-24T10:25:53;21.85;;;11.80;;
26201;SDS011;13944;28.562;77.188;2023-04-24T10:28:20;25.38;;;11.73;;
26201;SDS011;13944;28.562;77.188;2023-04-24T10:30:47;23.25;;;10.60;;
26201;SDS011;13944;28.562;77.188;2023-04-24T10:33:15;24.88;;;9.98;;
26201;SDS011;13944;28.562;77.188;2023-04-24T10:35:43;27.73;;;10.80;;
26201;SDS011;13944;28.562;77.188;2023-04-24T10:38:14;27.85;;;10.82;;
26201;SDS011;13944;28.562;77.188;2023-04-24T10:40:42;26.88;;;10.00;;
26201;SDS011;13944;28.562;77.188;2023-04-24T10:43:09;22.48;;;10.57;;
26201;SDS011;13944;28.562;77.188;2023-04-24T10:45:37;25.73;;;10.40;;
26201;SDS011;13944;28.562;77.188;2023-04-24T10:48:09;31.00;;;9.55;;
26201;SDS011;13944;28.562;77.188;2023-04-24T10:50:56;27.48;;;8.98;;
26201;SDS011;13944;28.562;77.188;2023-04-24T10:53:24;21.65;;;9.85;;
26201;SDS011;13944;28.562;77.188;2023-04-24T10:55:56;24.10;;;9.05;;
26201;SDS011;13944;28.562;77.188;2023-04-24T10:58:24;18.15;;;9.45;;
26201;SDS011;13944;28.562;77.188;2023-04-24T11:00:57;22.25;;;9.32;;
26201;SDS011;13944;28.562;77.188;2023-04-24T11:03:31;26.05;;;9.48;;
26201;SDS011;13944;28.562;77.188;2023-04-24T11:05:59;27.30;;;10.98;;
26201;SDS011;13944;28.562;77.188;2023-04-24T11:08:27;24.50;;;10.75;;
26201;SDS011;13944;28.562;77.188;2023-04-24T11:11:01;25.38;;;9.45;;
26201;SDS011;13944;28.562;77.188;2023-04-24T11:14:01;19.05;;;9.40;;
26201;SDS011;13944;28.562;77.188;2023-04-24T11:16:27;25.40;;;10.50;;
26201;SDS011;13944;28.562;77.188;2023-04-24T11:21:30;27.58;;;9.73;;
26201;SDS011;13944;28.562;77.188;2023-04-24T11:23:58;24.45;;;10.45;;
26201;SDS011;13944;28.562;77.188;2023-04-24T11:26:24;25.17;;;10.15;;
26201;SDS011;13944;28.562;77.188;2023-04-24T11:29:06;25.02;;;9.52;;
26201;SDS011;13944;28.562;77.188;2023-04-24T11:31:40;30.40;;;9.70;;
26201;SDS011;13944;28.562;77.188;2023-04-24T11:34:25;22.10;;;8.95;;
26201;SDS011;13944;28.562;77.188;2023-04-24T11:36:52;26.33;;;9.73;;
26201;SDS011;13944;28.562;77.188;2023-04-24T11:39:18;25.25;;;10.52;;
26201;SDS011;13944;28.562;77.188;2023-04-24T11:41:45;26.77;;;9.85;;
26201;SDS011;13944;28.562;77.188;2023-04-24T11:44:12;21.55;;;10.00;;
26201;SDS011;13944;28.562;77.188;2023-04-24T11:46:40;21.58;;;8.63;;
26201;SDS011;13944;28.562;77.188;2023-04-24T11:49:06;22.80;;;9.00;;
26201;SDS011;13944;28.562;77.188;2023-04-24T11:51:33;25.08;;;8.40;;
26201;SDS011;13944;28.562;77.188;2023-04-24T11:54:00;22.83;;;9.40;;
26201;SDS011;13944;28.562;77.188;2023-04-24T11:56:27;21.70;;;8.73;;
26201;SDS011;13944;28.562;77.188;2023-04-24T11:59:15;16.65;;;8.50;;
26201;SDS011;13944;28.562;77.188;2023-04-24T12:01:46;26.60;;;8.73;;
26201;SDS011;13944;28.562;77.188;2023-04-24T12:04:13;28.10;;;9.80;;
26201;SDS011;13944;28.562;77.188;2023-04-24T12:06:40;21.30;;;8.02;;
26201;SDS011;13944;28.562;77.188;2023-04-24T12:09:06;24.63;;;8.57;;
26201;SDS011;13944;28.562;77.188;2023-04-24T12:11:34;21.02;;;7.88;;
26201;SDS011;13944;28.562;77.188;2023-04-24T12:14:10;19.88;;;8.50;;
26201;SDS011;13944;28.562;77.188;2023-04-24T12:16:37;30.55;;;7.55;;
26201;SDS011;13944;28.562;77.188;2023-04-24T12:19:04;20.73;;;7.65;;
26201;SDS011;13944;28.562;77.188;2023-04-24T12:21:31;20.63;;;7.97;;
26201;SDS011;13944;28.562;77.188;2023-04-24T12:23:57;33.60;;;8.75;;
26201;SDS011;13944;28.562;77.188;2023-04-24T12:26:24;30.27;;;8.43;;
26201;SDS011;13944;28.562;77.188;2023-04-24T12:28:51;20.38;;;7.10;;
26201;SDS011;13944;28.562;77.188;2023-04-24T12:31:20;27.10;;;7.53;;
26201;SDS011;13944;28.562;77.188;2023-04-24T12:33:47;27.60;;;7.93;;
26201;SDS011;13944;28.562;77.188;2023-04-24T12:36:14;33.00;;;8.63;;
26201;SDS011;13944;28.562;77.188;2023-04-24T12:38:43;26.02;;;8.75;;
26201;SDS011;13944;28.562;77.188;2023-04-24T12:41:12;29.35;;;10.20;;
26201;SDS011;13944;28.562;77.188;2023-04-24T12:43:50;35.83;;;10.65;;
26201;SDS011;13944;28.562;77.188;2023-04-24T12:46:16;27.42;;;10.38;;
26201;SDS011;13944;28.562;77.188;2023-04-24T12:48:43;31.13;;;10.52;;
26201;SDS011;13944;28.562;77.188;2023-04-24T12:51:09;32.40;;;9.95;;
26201;SDS011;13944;28.562;77.188;2023-04-24T12:53:36;28.77;;;10.15;;
26201;SDS011;13944;28.562;77.188;2023-04-24T12:56:03;26.92;;;10.00;;
26201;SDS011;13944;28.562;77.188;2023-04-24T12:58:29;25.60;;;9.98;;
26201;SDS011;13944;28.562;77.188;2023-04-24T13:00:56;38.38;;;10.93;;
26201;SDS011;13944;28.562;77.188;2023-04-24T13:03:22;30.35;;;11.32;;
26201;SDS011;13944;28.562;77.188;2023-04-24T13:05:49;30.92;;;10.93;;
26201;SDS011;13944;28.562;77.188;2023-04-24T13:08:16;38.72;;;11.30;;
26201;SDS011;13944;28.562;77.188;2023-04-24T13:10:43;34.53;;;10.70;;
26201;SDS011;13944;28.562;77.188;2023-04-24T13:13:09;34.35;;;11.15;;
26201;SDS011;13944;28.562;77.188;2023-04-24T13:15:36;27.98;;;10.45;;
26201;SDS011;13944;28.562;77.188;2023-04-24T13:18:03;35.72;;;10.45;;
26201;SDS011;13944;28.562;77.188;2023-04-24T13:20:29;80.43;;;13.25;;
26201;SDS011;13944;28.562;77.188;2023-04-24T13:22:56;45.92;;;11.90;;
26201;SDS011;13944;28.562;77.188;2023-04-24T13:25:22;45.42;;;12.23;;
26201;SDS011;13944;28.562;77.188;2023-04-24T13:27:50;40.08;;;10.90;;
26201;SDS011;13944;28.562;77.188;2023-04-24T13:30:16;31.27;;;11.38;;
26201;SDS011;13944;28.562;77.188;2023-04-24T13:32:43;32.95;;;10.95;;
26201;SDS011;13944;28.562;77.188;2023-04-24T13:35:10;33.53;;;10.85;;
26201;SDS011;13944;28.562;77.188;2023-04-24T13:37:36;29.05;;;11.20;;
26201;SDS011;13944;28.562;77.188;2023-04-24T13:40:03;30.38;;;11.75;;
26201;SDS011;13944;28.562;77.188;2023-04-24T13:42:31;38.80;;;13.40;;
26201;SDS011;13944;28.562;77.188;2023-04-24T13:44:57;42.15;;;14.65;;
26201;SDS011;13944;28.562;77.188;2023-04-24T13:47:24;41.00;;;13.77;;
26201;SDS011;13944;28.562;77.188;2023-04-24T13:49:50;38.53;;;13.35;;
26201;SDS011;13944;28.562;77.188;2023-04-24T13:52:19;38.67;;;12.32;;
26201;SDS011;13944;28.562;77.188;2023-04-24T13:54:45;34.47;;;12.80;;
26201;SDS011;13944;28.562;77.188;2023-04-24T13:57:13;41.53;;;13.10;;
26201;SDS011;13944;28.562;77.188;2023-04-24T13:59:40;39.10;;;12.23;;
26201;SDS011;13944;28.562;77.188;2023-04-24T14:02:07;40.45;;;13.50;;
26201;SDS011;13944;28.562;77.188;2023-04-24T14:04:33;42.22;;;12.82;;
26201;SDS011;13944;28.562;77.188;2023-04-24T14:07:00;42.72;;;13.65;;
26201;SDS011;13944;28.562;77.188;2023-04-24T14:09:27;34.60;;;12.52;;
26201;SDS011;13944;28.562;77.188;2023-04-24T14:11:53;31.05;;;12.85;;
26201;SDS011;13944;28.562;77.188;2023-04-24T14:14:20;33.28;;;12.15;;
26201;SDS011;13944;28.562;77.188;2023-04-24T14:16:46;37.90;;;13.07;;
26201;SDS011;13944;28.562;77.188;2023-04-24T14:19:13;40.90;;;13.43;;